createdAt,value
2023-01-07T00:00:36.596Z,9.6
2023-01-07T00:02:38.353Z,10.2
2023-01-07T00:06:41.826Z,8.6
2023-01-07T00:10:45.320Z,10.1
2023-01-07T00:12:47.110Z,9.4
2023-01-07T00:14:52.347Z,9.7
2023-01-07T00:16:54.111Z,8.2
2023-01-07T00:18:55.886Z,10.4
2023-01-07T00:20:57.687Z,10.2
2023-01-07T00:22:59.449Z,10.6
2023-01-07T00:25:01.183Z,9.4
2023-01-07T00:27:02.960Z,9.6
2023-01-07T00:29:08.223Z,11.4
2023-01-07T00:31:10.060Z,9.1
2023-01-07T00:33:11.720Z,10.5
2023-01-07T00:35:13.483Z,9.7
2023-01-07T00:37:15.251Z,10.5
2023-01-07T00:39:17.023Z,9.7
2023-01-07T00:41:18.789Z,11.6
2023-01-07T00:43:24.046Z,10.5
2023-01-07T00:45:25.831Z,11.1
2023-01-07T00:47:27.563Z,9.9
2023-01-07T00:48:30.201Z,11.2
2023-01-07T00:52:33.742Z,11.3
2023-01-07T00:54:35.455Z,9.7
2023-01-07T00:56:40.718Z,10.8
2023-01-07T00:58:42.728Z,10.6
2023-01-07T01:00:44.280Z,11.8
2023-01-07T01:02:46.121Z,9.9
2023-01-07T01:04:47.778Z,11.6
2023-01-07T01:06:49.540Z,11.9
2023-01-07T01:10:56.584Z,11.4
2023-01-07T01:12:58.324Z,10.4
2023-01-07T01:19:03.617Z,10
2023-01-07T01:21:05.390Z,9.8
2023-01-07T01:23:07.115Z,9.6
2023-01-07T01:25:12.403Z,11.8
2023-01-07T01:27:14.133Z,10.3
2023-01-07T01:29:15.923Z,10.7
2023-01-07T01:31:17.734Z,12.4
2023-01-07T01:33:19.396Z,10.6
2023-01-07T01:35:21.181Z,10
2023-01-07T01:37:22.949Z,8.7
2023-01-07T01:39:28.468Z,9.8
2023-01-07T01:41:30.074Z,9.2
2023-01-07T01:43:36.826Z,10
2023-01-07T01:46:36.187Z,9.2
2023-01-07T01:48:37.834Z,9.1
2023-01-07T01:52:48.497Z,8.4
2023-01-07T01:54:48.249Z,8.9
2023-01-07T01:56:50.028Z,8.5
2023-01-07T01:58:51.747Z,8.3
2023-01-07T02:00:53.588Z,8.1
2023-01-07T02:02:55.239Z,9.1
2023-01-07T02:04:57.015Z,8
2023-01-07T02:07:02.254Z,8.8
2023-01-07T02:09:04.032Z,9.1
2023-01-07T02:11:05.770Z,7.7
2023-01-07T02:13:07.544Z,7.5
2023-01-07T02:17:11.087Z,7
2023-01-07T02:19:12.815Z,7
2023-01-07T02:21:18.044Z,9
2023-01-07T02:25:21.584Z,7.4
2023-01-07T02:27:23.345Z,7.7
2023-01-07T02:29:25.098Z,7.5
2023-01-07T02:31:26.908Z,6.7
2023-01-07T02:33:28.595Z,7.6
2023-01-07T02:35:33.885Z,7.4
2023-01-07T02:37:35.651Z,7.5
2023-01-07T02:39:37.408Z,7.3
2023-01-07T02:40:39.999Z,7.3
2023-01-07T02:42:41.779Z,8.2
2023-01-07T02:44:43.517Z,6.9
2023-01-07T02:46:45.267Z,6.1
2023-01-07T02:48:50.507Z,8.1
2023-01-07T02:50:52.313Z,6.8
2023-01-07T02:52:54.041Z,7
2023-01-07T02:54:55.816Z,8.4
2023-01-07T02:56:57.587Z,6.6
2023-01-07T02:58:59.320Z,7
2023-01-07T03:01:01.285Z,7.2
2023-01-07T03:03:06.325Z,7.2
2023-01-07T03:05:08.099Z,6.5
2023-01-07T03:07:09.843Z,5.8
2023-01-07T03:09:11.599Z,6.4
2023-01-07T03:11:13.344Z,6.1
2023-01-07T03:13:15.136Z,6.3
2023-01-07T03:15:16.874Z,5.4
2023-01-07T03:17:22.142Z,6.4
2023-01-07T03:19:23.908Z,5.5
2023-01-07T03:21:25.659Z,5.4
2023-01-07T03:27:30.987Z,5.6
2023-01-07T03:29:32.707Z,4.7
2023-01-07T03:35:41.513Z,4.1
2023-01-07T03:38:02.943Z,4.8
2023-01-07T03:40:04.686Z,5.2
2023-01-07T03:42:06.470Z,5
2023-01-07T03:44:11.726Z,5.1
2023-01-07T03:46:13.541Z,4.9
2023-01-07T03:48:15.239Z,4.9
2023-01-07T03:50:17.131Z,4.7
2023-01-07T03:52:18.955Z,4.7
2023-01-07T03:54:20.539Z,4.8
2023-01-07T03:56:22.274Z,6
2023-01-07T03:58:27.510Z,5.3
2023-01-07T04:00:29.278Z,5.2
2023-01-07T04:02:31.059Z,3.9
2023-01-07T04:04:32.846Z,4.9
2023-01-07T04:06:34.554Z,4.9
2023-01-07T04:08:36.315Z,4.3
2023-01-07T04:10:38.039Z,5.1
2023-01-07T04:12:43.319Z,5.1
2023-01-07T04:14:45.032Z,5.3
2023-01-07T04:16:46.821Z,6.3
2023-01-07T04:18:48.559Z,5.4
2023-01-07T04:22:52.027Z,4.5
2023-01-07T04:31:02.484Z,5.4
2023-01-07T04:38:10.329Z,4.3
2023-01-07T04:40:15.570Z,4.8
2023-01-07T04:42:17.298Z,4
2023-01-07T04:44:19.040Z,4.1
2023-01-07T04:46:20.856Z,4.7
2023-01-07T04:48:22.472Z,4.2
2023-01-07T04:50:24.227Z,5
2023-01-07T04:54:31.186Z,5.4
2023-01-07T04:56:32.936Z,4.9
2023-01-07T04:58:34.696Z,5.2
2023-01-07T05:00:36.434Z,4.1
2023-01-07T05:02:38.182Z,5.7
2023-01-07T05:04:40.007Z,4.5
2023-01-07T05:06:41.635Z,4.9
2023-01-07T05:10:48.605Z,5.1
2023-01-07T05:14:52.094Z,4.6
2023-01-07T05:16:53.900Z,4.3
2023-01-07T05:18:55.575Z,4
2023-01-07T05:20:57.304Z,4.6
2023-01-07T05:23:02.541Z,4.6
2023-01-07T05:25:04.302Z,4
2023-01-07T05:28:08.683Z,4.5
2023-01-07T05:30:10.404Z,3.7
2023-01-07T05:32:12.145Z,5.9
2023-01-07T05:34:13.858Z,4.1
2023-01-07T05:36:19.151Z,3.4
2023-01-07T05:44:26.079Z,2.9
2023-01-07T05:46:27.865Z,3.7
2023-01-07T05:48:29.566Z,3.3
2023-01-07T05:50:34.785Z,4.5
2023-01-07T05:58:41.900Z,4.2
2023-01-07T06:12:57.772Z,3.5
2023-01-07T06:17:01.049Z,3.4
2023-01-07T06:19:06.222Z,3.3
2023-01-07T06:24:12.298Z,3.2
2023-01-07T06:26:14.012Z,2.9
2023-01-07T06:28:15.723Z,3.3
2023-01-07T06:30:17.506Z,3.2
2023-01-07T06:32:22.682Z,3.2
2023-01-07T06:34:24.411Z,3.1
2023-01-07T06:36:26.127Z,3.3
2023-01-07T06:38:27.856Z,2.3
2023-01-07T06:40:29.594Z,2.4
2023-01-07T06:42:31.362Z,2.1
2023-01-07T06:46:38.360Z,2.2
2023-01-07T06:48:39.972Z,2.2
2023-01-07T06:50:41.715Z,2.2
2023-01-07T06:52:43.491Z,2.5
2023-01-07T06:54:47.574Z,2.7
2023-01-07T06:56:46.946Z,2.4
2023-01-07T06:58:48.708Z,2.3
2023-01-07T07:00:53.979Z,2.7
2023-01-07T07:02:55.725Z,1.7
2023-01-07T07:04:57.460Z,2.1
2023-01-07T07:09:00.879Z,1.6
2023-01-07T07:13:04.380Z,2
2023-01-07T07:15:09.603Z,1.9
2023-01-07T07:17:11.377Z,1.8
2023-01-07T07:19:13.116Z,1.6
2023-01-07T07:21:17.528Z,2.3
2023-01-07T07:23:19.304Z,2.3
2023-01-07T07:25:21.000Z,2.1
2023-01-07T07:27:25.434Z,1.5
2023-01-07T07:29:27.199Z,1.5
2023-01-07T07:31:28.945Z,1.7
2023-01-07T07:33:33.307Z,1.4
2023-01-07T07:35:35.067Z,1.5
2023-01-07T07:39:41.219Z,1.7
2023-01-07T07:41:42.977Z,1.7
2023-01-07T07:47:50.913Z,0.9
2023-01-07T07:49:52.675Z,1.6
2023-01-07T07:52:16.552Z,1.2
2023-01-07T07:54:18.315Z,1
2023-01-07T07:58:25.334Z,1.3
2023-01-07T08:00:27.114Z,1
2023-01-07T08:04:30.564Z,1
2023-01-07T08:06:32.330Z,0.9
2023-01-07T08:08:34.056Z,0.8
2023-01-07T08:10:35.816Z,1.3
2023-01-07T08:12:41.066Z,1
2023-01-07T08:14:43.921Z,1.1
2023-01-07T08:16:44.574Z,0.9
2023-01-07T08:18:46.372Z,0.7
2023-01-07T08:20:48.141Z,1.3
2023-01-07T08:22:49.829Z,0.7
2023-01-07T08:24:51.581Z,0.8
2023-01-07T08:26:56.824Z,1.3
2023-01-07T08:31:00.326Z,0.7
2023-01-07T08:33:02.090Z,0.9
2023-01-07T08:35:03.843Z,1.2
2023-01-07T08:37:05.634Z,0.8
2023-01-07T08:39:07.347Z,0.8
2023-01-07T08:41:12.623Z,0.8
2023-01-07T08:43:14.375Z,0.6
2023-01-07T08:45:16.178Z,0.7
2023-01-07T08:50:22.219Z,0.6
2023-01-07T08:52:23.970Z,0.5
2023-01-07T08:56:33.779Z,0.4
2023-01-07T08:58:32.676Z,0.7
2023-01-07T09:00:34.477Z,0.6
2023-01-07T09:04:37.912Z,0.7
2023-01-07T09:06:39.693Z,0.6
2023-01-07T09:08:44.903Z,0.4
2023-01-07T09:12:48.459Z,0.6
2023-01-07T09:14:50.266Z,0.4
2023-01-07T09:16:53.347Z,0.5
2023-01-07T09:18:59.033Z,1
2023-01-07T09:20:55.511Z,0.6
2023-01-07T09:23:00.873Z,2.4
2023-01-07T09:25:02.582Z,0.8
2023-01-07T09:27:04.304Z,0.8
2023-01-07T09:29:06.075Z,0.7
2023-01-07T09:31:07.845Z,0.4
2023-01-07T09:33:09.628Z,0.3
2023-01-07T09:35:11.376Z,0.8
2023-01-07T09:39:18.410Z,0.7
2023-01-07T09:42:22.838Z,0.5
2023-01-07T09:44:24.664Z,0.6
2023-01-07T09:46:26.359Z,0.6
2023-01-07T09:48:28.127Z,0.8
2023-01-07T09:50:33.396Z,0.6
2023-01-07T09:52:35.370Z,0.6
2023-01-07T09:54:37.997Z,0.5
2023-01-07T09:56:43.163Z,0.9
2023-01-07T09:58:40.480Z,0.7
2023-01-07T10:00:42.251Z,0.8
2023-01-07T10:02:44.080Z,0.4
2023-01-07T10:04:49.391Z,0.7
2023-01-07T10:06:52.858Z,0.6
2023-01-07T10:08:52.915Z,0.7
2023-01-07T10:10:55.090Z,0.6
2023-01-07T10:14:58.161Z,0.8
2023-01-07T10:19:05.238Z,0.5
2023-01-07T10:21:07.006Z,0.6
2023-01-07T10:27:12.304Z,0.7
2023-01-07T10:29:14.115Z,1
2023-01-07T10:33:21.076Z,0.9
2023-01-07T10:35:22.804Z,1.1
2023-01-07T10:37:24.626Z,0.6
2023-01-07T10:40:31.632Z,0.6
2023-01-07T10:44:32.482Z,1.4
2023-01-07T10:46:37.768Z,0.5
2023-01-07T10:50:41.240Z,0.5
2023-01-07T10:52:43.025Z,0.6
2023-01-07T10:56:46.580Z,0.8
2023-01-07T10:58:48.328Z,0.5
2023-01-07T11:02:55.530Z,0.5
2023-01-07T11:04:57.188Z,0.6
2023-01-07T11:06:58.948Z,0.3
2023-01-07T11:09:00.757Z,0.4
2023-01-07T11:11:02.502Z,0.5
2023-01-07T11:15:09.690Z,0.5
2023-01-07T11:17:14.464Z,0.4
2023-01-07T11:21:43.144Z,0.5
2023-01-07T11:23:16.669Z,0.3
2023-01-07T11:25:18.425Z,0.5
2023-01-07T11:27:20.190Z,0.6
2023-01-07T11:29:25.448Z,0.5
2023-01-07T11:31:27.263Z,0.1
2023-01-07T11:35:52.994Z,0.5
2023-01-07T11:39:56.618Z,0.3
2023-01-07T11:42:01.895Z,0.3
2023-01-07T11:44:03.671Z,0.6
2023-01-07T11:46:19.345Z,0.5
2023-01-07T11:48:07.240Z,0.4
2023-01-07T11:50:08.973Z,0.8
2023-01-07T11:52:10.779Z,0.4
2023-01-07T11:54:13.673Z,0.4
2023-01-07T11:56:23.441Z,0.3
2023-01-07T11:58:30.056Z,0.7
2023-01-07T12:00:21.381Z,0.5
2023-01-07T12:02:23.309Z,0.4
2023-01-07T12:04:24.932Z,0.4
2023-01-07T12:06:26.711Z,0.3
2023-01-07T12:08:28.508Z,0.6
2023-01-07T12:10:33.778Z,0.7
2023-01-07T12:18:40.892Z,0.3
2023-01-07T12:20:42.689Z,0.3
2023-01-07T12:22:44.541Z,0.4
2023-01-07T12:28:53.317Z,0.3
2023-01-07T12:29:55.946Z,0.5
2023-01-07T12:31:57.736Z,0.4
2023-01-07T12:33:59.513Z,0.4
2023-01-07T12:36:01.510Z,0.5
2023-01-07T12:38:06.938Z,0.6
2023-01-07T12:40:08.352Z,0.5
2023-01-07T12:42:10.177Z,0.5
2023-01-07T12:44:11.906Z,0.5
2023-01-07T12:46:13.799Z,0.9
2023-01-07T12:48:15.503Z,0.7
2023-01-07T12:50:17.263Z,0.5
2023-01-07T12:52:22.528Z,0.6
2023-01-07T12:54:24.305Z,0.5
2023-01-07T12:56:26.139Z,0.7
2023-01-07T12:58:27.867Z,4.5
2023-01-07T13:00:29.620Z,1.5
2023-01-07T13:02:31.399Z,0.3
2023-01-07T13:04:33.233Z,0.4
2023-01-07T13:06:38.449Z,0.7
2023-01-07T13:08:40.223Z,0.7
2023-01-07T13:10:41.979Z,0.3
2023-01-07T13:12:43.747Z,0.5
2023-01-07T13:14:45.573Z,0.8
2023-01-07T13:16:49.909Z,0.6
2023-01-07T13:18:49.084Z,0.9
2023-01-07T13:20:54.348Z,0.8
2023-01-07T13:22:56.116Z,0.6
2023-01-07T13:24:57.878Z,0.5
2023-01-07T13:26:00.527Z,0.5
2023-01-07T13:28:02.327Z,0.5
2023-01-07T13:30:04.071Z,0.6
2023-01-07T13:34:12.743Z,0.4
2023-01-07T13:36:14.622Z,0.7
2023-01-07T13:44:21.549Z,0.7
2023-01-07T13:46:23.389Z,0.9
2023-01-07T13:54:33.905Z,0.8
2023-01-07T13:56:35.676Z,0.7
2023-01-07T14:02:44.835Z,1
2023-01-07T14:04:57.883Z,1
2023-01-07T14:06:48.015Z,1.2
2023-01-07T14:08:49.767Z,1.5
2023-01-07T14:10:51.530Z,1.2
2023-01-07T14:12:53.379Z,1
2023-01-07T14:14:55.144Z,0.5
2023-01-07T14:17:00.409Z,1.1
2023-01-07T14:19:02.169Z,1.3
2023-01-07T14:21:03.981Z,0.6
2023-01-07T14:22:06.625Z,0.6
2023-01-07T14:28:11.955Z,1
2023-01-07T14:30:17.302Z,1.3
2023-01-07T14:32:19.016Z,0.9
2023-01-07T14:34:20.777Z,1.4
2023-01-07T14:36:22.559Z,1
2023-01-07T14:38:24.355Z,1.2
2023-01-07T14:40:26.124Z,1.2
2023-01-07T14:42:27.997Z,1.5
2023-01-07T14:44:33.115Z,1.3
2023-01-07T14:46:34.931Z,1.5
2023-01-07T14:48:36.666Z,1.2
2023-01-07T14:50:38.448Z,1.2
2023-01-07T14:54:41.983Z,1.4
2023-01-07T14:56:43.792Z,1.7
2023-01-07T14:58:49.033Z,1.5
2023-01-07T15:00:50.953Z,1.7
2023-01-07T15:04:54.337Z,1.8
2023-01-07T15:06:56.091Z,1.9
2023-01-07T15:08:57.899Z,1.7
2023-01-07T15:10:59.683Z,1.5
2023-01-07T15:15:06.751Z,1.9
2023-01-07T15:17:08.457Z,1.9
2023-01-07T15:19:31.815Z,2
2023-01-07T15:21:33.579Z,2.2
2023-01-07T15:23:35.328Z,2.3
2023-01-07T15:25:40.577Z,2.1
2023-01-07T15:27:42.355Z,2.1
2023-01-07T15:29:44.107Z,2.3
2023-01-07T15:31:45.976Z,2.3
2023-01-07T15:33:47.636Z,2.3
2023-01-07T15:37:51.184Z,1.5
2023-01-07T15:43:59.912Z,2.1
2023-01-07T15:46:01.690Z,1.8
2023-01-07T15:48:03.476Z,2.6
2023-01-07T15:52:07.249Z,1.9
2023-01-07T15:54:13.631Z,1.9
2023-01-07T16:00:17.486Z,1.7
2023-01-07T16:02:19.302Z,2
2023-01-07T16:08:28.066Z,1.4
2023-01-07T16:10:29.827Z,1.7
2023-01-07T16:12:31.583Z,1.3
2023-01-07T16:17:37.787Z,1.5
2023-01-07T16:19:39.536Z,1.8
2023-01-07T16:23:46.564Z,1.8
2023-01-07T16:25:48.439Z,1.5
2023-01-07T16:27:50.127Z,1.6
2023-01-07T16:29:51.935Z,1.1
2023-01-07T16:33:55.501Z,1.5
2023-01-07T16:36:00.835Z,1
2023-01-07T16:38:02.585Z,1.3
2023-01-07T16:42:06.119Z,1.1
2023-01-07T16:44:07.888Z,1.1
2023-01-07T16:48:11.441Z,1.3
2023-01-07T16:50:16.733Z,1
2023-01-07T16:52:18.497Z,1.5
2023-01-07T16:54:20.301Z,1.5
2023-01-07T16:56:22.082Z,1
2023-01-07T17:02:27.382Z,1.4
2023-01-07T17:04:32.646Z,1.1
2023-01-07T17:06:34.451Z,1.7
2023-01-07T17:08:36.216Z,1.2
2023-01-07T17:11:40.645Z,1.2
2023-01-07T17:13:42.426Z,0.8
2023-01-07T17:17:49.466Z,1
2023-01-07T17:21:53.011Z,1.3
2023-01-07T17:23:54.872Z,1.4
2023-01-07T17:25:56.578Z,1
2023-01-07T17:27:58.363Z,1.3
2023-01-07T17:30:00.153Z,1.4
2023-01-07T17:34:07.195Z,1.5
2023-01-07T17:36:08.958Z,0.9
2023-01-07T17:40:12.404Z,1.8
2023-01-07T17:46:21.381Z,2
2023-01-07T17:48:22.913Z,2.2
2023-01-07T17:50:24.651Z,2.2
2023-01-07T17:52:26.506Z,1.6
2023-01-07T17:54:28.252Z,1.2
2023-01-07T17:56:29.982Z,1.9
2023-01-07T17:58:31.840Z,1.6
2023-01-07T18:00:37.159Z,1.6
2023-01-07T18:04:40.593Z,2
2023-01-07T18:09:46.695Z,2
2023-01-07T18:11:48.453Z,1.4
2023-01-07T18:13:53.635Z,2.4
2023-01-07T18:15:55.322Z,1.7
2023-01-07T18:17:57.111Z,1.9
2023-01-07T18:19:58.821Z,2.1
2023-01-07T18:24:02.316Z,2.1
2023-01-07T18:28:09.212Z,3
2023-01-07T18:30:11.048Z,2.6
2023-01-07T18:32:12.873Z,3.4
2023-01-07T18:34:14.652Z,2.3
2023-01-07T18:36:16.473Z,2.6
2023-01-07T18:40:20.145Z,2.4
2023-01-07T18:42:25.556Z,4.1
2023-01-07T18:44:27.404Z,3.3
2023-01-07T18:46:29.217Z,3.2
2023-01-07T18:48:31.013Z,3.4
2023-01-07T18:50:32.714Z,2.8
2023-01-07T18:52:34.578Z,3.2
2023-01-07T18:54:36.368Z,2.6
2023-01-07T18:56:41.759Z,2.6
2023-01-07T18:58:44.337Z,2.8
2023-01-07T19:00:45.480Z,2.6
2023-01-07T19:02:49.948Z,2.7
2023-01-07T19:04:51.722Z,2.5
2023-01-07T19:06:53.540Z,2.9
2023-01-07T19:08:58.072Z,2.5
2023-01-07T19:10:59.864Z,2.9
2023-01-07T19:13:01.700Z,2.6
2023-01-07T19:15:06.181Z,2.9
2023-01-07T19:17:08.530Z,2.4
2023-01-07T19:19:09.817Z,3
2023-01-07T19:24:18.956Z,2.2
2023-01-07T19:28:22.565Z,2
2023-01-07T19:30:27.102Z,2.8
2023-01-07T19:32:28.996Z,4.5
2023-01-07T19:34:30.697Z,2.3
2023-01-07T19:36:45.499Z,2.8
2023-01-07T19:38:37.246Z,2.9
2023-01-07T19:40:38.863Z,2.4
2023-01-07T19:42:43.253Z,2.7
2023-01-07T19:44:45.099Z,2.2
2023-01-07T19:46:46.909Z,2.9
2023-01-07T19:48:51.441Z,2.6
2023-01-07T19:50:53.260Z,3
2023-01-07T19:52:55.086Z,2.9
2023-01-07T19:54:59.578Z,2.7
2023-01-07T19:57:01.429Z,2.1
2023-01-07T19:59:03.051Z,2.8
2023-01-07T20:01:07.618Z,2.4
2023-01-07T20:03:09.236Z,2.6
2023-01-07T20:05:10.911Z,2.6
2023-01-07T20:07:15.459Z,3.1
2023-01-07T20:09:17.254Z,3.1
2023-01-07T20:11:19.068Z,3.4
2023-01-07T20:13:23.455Z,2.6
2023-01-07T20:15:25.185Z,2.1
2023-01-07T20:17:26.934Z,2.8
2023-01-07T20:19:31.314Z,3
2023-01-07T20:21:33.068Z,2.1
2023-01-07T20:23:34.837Z,2.9
2023-01-07T20:25:39.226Z,2
2023-01-07T20:27:40.951Z,2.5
2023-01-07T20:29:42.693Z,1.9
2023-01-07T20:31:47.152Z,1.8
2023-01-07T20:33:48.853Z,1.3
2023-01-07T20:35:50.568Z,1.4
2023-01-07T20:43:03.576Z,1.4
2023-01-07T20:45:05.313Z,1.3
2023-01-07T20:47:09.728Z,1.6
2023-01-07T20:49:11.444Z,1.6
2023-01-07T20:51:13.185Z,1.9
2023-01-07T20:53:17.623Z,1.5
2023-01-07T20:55:19.383Z,1
2023-01-07T20:57:21.114Z,1.4
2023-01-07T20:59:25.511Z,1.4
2023-01-07T21:01:27.334Z,1.8
2023-01-07T21:03:29.049Z,1.3
2023-01-07T21:07:35.114Z,1.1
2023-01-07T21:09:36.853Z,1.2
2023-01-07T21:15:44.755Z,1.2
2023-01-07T21:20:03.674Z,1.4
2023-01-07T21:22:05.445Z,1.2
2023-01-07T21:24:10.662Z,1.5
2023-01-07T21:26:12.396Z,1
2023-01-07T21:28:14.136Z,1.2
2023-01-07T21:30:15.890Z,1.3
2023-01-07T21:32:17.617Z,1.2
2023-01-07T21:34:19.346Z,1
2023-01-07T21:36:21.056Z,1.2
2023-01-07T21:40:28.034Z,1.5
2023-01-07T21:42:29.774Z,1.5
2023-01-07T21:44:31.520Z,1.1
2023-01-07T21:46:33.215Z,1.8
2023-01-07T21:48:34.971Z,1.1
2023-01-07T21:50:37.133Z,0.9
2023-01-07T21:52:41.957Z,0.8
2023-01-07T21:54:43.709Z,1.6
2023-01-07T21:56:45.472Z,1
2023-01-07T21:58:47.241Z,1.4
2023-01-07T22:07:14.392Z,1.3
2023-01-07T22:08:59.514Z,1.3
2023-01-07T22:12:03.871Z,1
2023-01-07T22:14:05.633Z,0.8
2023-01-07T22:16:07.436Z,1.4
2023-01-07T22:18:09.157Z,0.9
2023-01-07T22:20:14.392Z,1.6
2023-01-07T22:24:17.912Z,1.5
2023-01-07T22:26:19.682Z,1.4
2023-01-07T22:28:21.442Z,0.8
2023-01-07T22:30:23.181Z,1.1
2023-01-07T22:32:24.931Z,1.4
2023-01-07T22:34:30.193Z,1
2023-01-07T22:36:31.979Z,1
2023-01-07T22:38:33.752Z,1.6
2023-01-07T22:40:35.525Z,1.1
2023-01-07T22:42:37.257Z,1.5
2023-01-07T22:44:38.988Z,1
2023-01-07T22:46:40.764Z,0.9
2023-01-07T22:48:46.023Z,1
2023-01-07T22:50:47.731Z,0.9
2023-01-07T22:52:49.493Z,1
2023-01-07T22:54:51.261Z,1.5
2023-01-07T22:56:53.054Z,1
2023-01-07T22:58:54.786Z,1
2023-01-07T23:00:56.643Z,1
2023-01-07T23:03:01.864Z,1.5
2023-01-07T23:05:03.576Z,1.3
2023-01-07T23:07:05.327Z,1.1
2023-01-07T23:08:07.975Z,1.3
2023-01-07T23:10:09.729Z,1.2
2023-01-07T23:18:20.252Z,1.5
2023-01-07T23:20:22.018Z,1.2
2023-01-07T23:22:23.803Z,1.4
2023-01-07T23:24:25.549Z,1.2
2023-01-07T23:26:27.701Z,1.5
2023-01-07T23:28:29.516Z,1.4
2023-01-07T23:32:36.002Z,1.3
2023-01-07T23:34:37.829Z,1.5
2023-01-07T23:36:39.518Z,1.5
2023-01-07T23:40:43.286Z,1.6
2023-01-07T23:42:44.797Z,1.3
2023-01-07T23:44:50.155Z,1.4
2023-01-07T23:46:51.847Z,1.3
2023-01-07T23:48:53.551Z,1.2
2023-01-07T23:50:55.317Z,1.3
2023-01-07T23:52:57.098Z,1.3
2023-01-07T23:54:58.850Z,1.7
2023-01-07T23:59:05.873Z,1.7
